aviador You're here:

CYPH Decoded Metar

INUKJUAK in QC, CANADA
Report Time2018-01-22 01:00:00
UTC Time2018-01-22 01:55:23
Flight Rules vfr VFR
Wind310° at 18 kt
W.Decomp.*RWY 25: 3.4 kt HW 17.7 kt RCW
W.Rank310° ranks 18
Current wind is above 310° avg. (12.8)
Visibility9999 m
Phenomena:N/A
Clouds:N/A
Expected CloudBase > 1,200 ft AGL from Temp-Dew spread
CeilingNone
Temp-24°C (ISA -39)
Dew Point-27°C (76% RH)
AAT-34.3°C
QNH1022 hPa
Density Alt-5,338 ft
Elevation10 ft
Report Wrong Elevation
Raw Report
CYPH 220100Z AUTO 31018KT 8SM CLR M24/M27 A3018 RMK SLP224=

Extra information for CYPH:More info

Metar Taf Metar & Taf Last 4 Metars F.Rules Stats Wind Profile Meteogram Temp Stats Airport Information Weather charts Add Link Nearby VenuesMetar ALERT Operation Metar Decoded Social comments